Time;durP1;ratioP1;P1;durP2;ratioP2;P2;SDS_P1;SDS_P2;PMS_P1;PMS_P2;Temp;Humidity;BMP_temperature;BMP_pressure;BME280_temperature;BME280_humidity;BME280_pressure;Samples;Min_cycle;Max_cycle;Signal;HPM_P1;HPM_P2
2023/09/10 00:04:51;;;;;;;0.30;0.30;;;;;;;;;;10269488;28;20871;-76
2023/09/10 00:09:52;;;;;;;0.60;0.60;;;;;;;;;;10311330;28;20219;-76
2023/09/10 00:14:53;;;;;;;0.50;0.50;;;;;;;;;;10281709;28;20216;-79
2023/09/10 00:19:54;;;;;;;0.85;0.85;;;;;;;;;;10308857;28;20215;-77
2023/09/10 00:24:55;;;;;;;10.82;1.10;;;;;;;;;;10300084;28;20698;-79
2023/09/10 00:29:56;;;;;;;0.65;0.63;;;;;;;;;;10285331;28;20217;-77
2023/09/10 00:34:57;;;;;;;0.63;0.30;;;;;;;;;;10241355;28;20702;-77
2023/09/10 00:39:58;;;;;;;0.32;0.32;;;;;;;;;;10227253;28;20217;-77
2023/09/10 00:44:59;;;;;;;0.85;0.85;;;;;;;;;;10289170;28;20783;-77
2023/09/10 00:50:01;;;;;;;1.23;0.77;;;;;;;;;;10287091;28;20693;-80
2023/09/10 00:55:02;;;;;;;0.30;0.30;;;;;;;;;;10302172;28;20251;-77
2023/09/10 01:00:07;;;;;;;0.40;0.40;;;;;;;;;;10295238;28;20845;-79
2023/09/10 01:05:08;;;;;;;1.20;0.75;;;;;;;;;;10304512;28;20236;-78
2023/09/10 01:10:09;;;;;;;0.55;0.52;;;;;;;;;;10307070;28;20282;-79
2023/09/10 01:15:33;;;;;;;0.47;0.47;;;;;;;;;;10284285;28;20653;-76
2023/09/10 01:20:53;;;;;;;0.15;0.15;;;;;;;;;;10267073;28;20237;-77
2023/09/10 01:25:54;;;;;;;0.55;0.55;;;;;;;;;;10303995;28;20281;-77
2023/09/10 01:30:56;;;;;;;2.38;0.60;;;;;;;;;;10296110;28;20220;-79
2023/09/10 01:36:10;;;;;;;2.17;0.55;;;;;;;;;;10285304;28;20303;-80
2023/09/10 01:41:16;;;;;;;0.82;0.82;;;;;;;;;;10317338;28;20286;-80
2023/09/10 01:46:18;;;;;;;0.50;0.50;;;;;;;;;;10282060;28;20303;-76
2023/09/10 01:51:19;;;;;;;0.30;0.28;;;;;;;;;;10288746;28;20680;-76
2023/09/10 01:56:20;;;;;;;0.30;0.30;;;;;;;;;;10313195;28;20645;-78
2023/09/10 02:01:21;;;;;;;3.17;0.95;;;;;;;;;;10303456;28;20219;-77
2023/09/10 02:06:23;;;;;;;2.10;0.30;;;;;;;;;;10301756;28;20244;-80
2023/09/10 02:11:25;;;;;;;0.77;0.77;;;;;;;;;;10309122;28;20227;-77
2023/09/10 02:16:26;;;;;;;0.38;0.38;;;;;;;;;;10294824;28;20843;-78
2023/09/10 02:21:27;;;;;;;0.10;0.10;;;;;;;;;;10315492;28;20227;-78
2023/09/10 02:26:28;;;;;;;0.85;0.57;;;;;;;;;;10306522;28;20213;-78
2023/09/10 02:31:29;;;;;;;0.30;0.30;;;;;;;;;;10328670;28;20217;-78
2023/09/10 02:36:30;;;;;;;0.57;0.57;;;;;;;;;;10286373;28;20224;-80
2023/09/10 02:41:31;;;;;;;2.05;0.40;;;;;;;;;;10285509;28;20306;-77
2023/09/10 02:46:32;;;;;;;0.82;0.55;;;;;;;;;;10315686;28;20219;-79
2023/09/10 02:51:33;;;;;;;0.43;0.43;;;;;;;;;;10315054;28;20220;-78
2023/09/10 02:56:34;;;;;;;0.50;0.50;;;;;;;;;;10302356;28;20217;-79
2023/09/10 03:01:36;;;;;;;0.03;0.03;;;;;;;;;;10289692;28;20218;-79
2023/09/10 03:06:37;;;;;;;0.50;0.50;;;;;;;;;;10303061;28;20251;-81
2023/09/10 03:11:38;;;;;;;0.40;0.40;;;;;;;;;;10309485;28;20217;-79
2023/09/10 03:16:40;;;;;;;0.28;0.28;;;;;;;;;;10307777;28;20315;-79
2023/09/10 03:21:42;;;;;;;0.47;0.47;;;;;;;;;;10280789;28;20216;-78
2023/09/10 03:26:43;;;;;;;0.40;0.40;;;;;;;;;;10316899;28;20809;-81
2023/09/10 03:31:44;;;;;;;0.45;0.45;;;;;;;;;;10293975;28;20228;-77
2023/09/10 03:36:46;;;;;;;0.38;0.38;;;;;;;;;;10301155;28;20204;-80
2023/09/10 03:41:47;;;;;;;3.63;0.73;;;;;;;;;;10292808;28;20229;-77
2023/09/10 03:46:49;;;;;;;0.43;0.43;;;;;;;;;;10286978;28;20215;-78
2023/09/10 03:51:51;;;;;;;0.30;0.30;;;;;;;;;;10286539;28;20220;-79
2023/09/10 03:56:53;;;;;;;0.10;0.10;;;;;;;;;;10311239;28;20302;-77
2023/09/10 04:01:58;;;;;;;2.03;0.43;;;;;;;;;;10319913;28;20358;-78
2023/09/10 04:07:00;;;;;;;0.30;0.30;;;;;;;;;;10310663;28;20298;-78
2023/09/10 04:12:01;;;;;;;0.22;0.22;;;;;;;;;;10306307;28;20216;-76
2023/09/10 04:17:02;;;;;;;0.55;0.55;;;;;;;;;;10308111;28;20228;-82
2023/09/10 04:22:04;;;;;;;0.60;0.60;;;;;;;;;;10296119;28;20216;-78
2023/09/10 04:27:05;;;;;;;1.20;0.45;;;;;;;;;;10315595;28;20245;-77
2023/09/10 04:32:06;;;;;;;0.38;0.38;;;;;;;;;;10304028;28;20295;-79
2023/09/10 04:37:07;;;;;;;0.70;0.70;;;;;;;;;;10302926;28;20284;-77
2023/09/10 04:42:09;;;;;;;1.10;1.10;;;;;;;;;;10287114;28;20710;-77
2023/09/10 04:47:10;;;;;;;0.57;0.57;;;;;;;;;;10320318;28;20224;-80
2023/09/10 04:52:11;;;;;;;0.47;0.47;;;;;;;;;;10284203;28;20275;-77
2023/09/10 04:57:12;;;;;;;0.20;0.20;;;;;;;;;;10305884;28;20217;-78
2023/09/10 05:02:13;;;;;;;3.60;1.27;;;;;;;;;;10288016;28;20344;-77
2023/09/10 05:07:15;;;;;;;0.05;0.05;;;;;;;;;;10298331;28;20734;-75
2023/09/10 05:12:16;;;;;;;0.35;0.35;;;;;;;;;;10311737;28;20212;-77
2023/09/10 05:17:17;;;;;;;0.30;0.30;;;;;;;;;;10303851;28;20268;-77
2023/09/10 05:22:18;;;;;;;0.32;0.32;;;;;;;;;;10290007;28;20217;-77
2023/09/10 05:27:19;;;;;;;0.90;0.32;;;;;;;;;;10299852;28;20672;-80
2023/09/10 05:32:20;;;;;;;0.32;0.32;;;;;;;;;;10292207;28;20311;-80
2023/09/10 05:37:22;;;;;;;0.75;0.75;;;;;;;;;;10296858;28;20723;-77
2023/09/10 05:42:23;;;;;;;1.38;0.43;;;;;;;;;;10307446;28;20216;-78
2023/09/10 05:47:24;;;;;;;0.40;0.35;;;;;;;;;;10300790;28;20275;-76
2023/09/10 05:52:26;;;;;;;0.52;0.52;;;;;;;;;;10310592;28;20212;-79
2023/09/10 05:57:27;;;;;;;0.47;0.47;;;;;;;;;;10319344;28;20224;-78
2023/09/10 06:02:28;;;;;;;0.52;0.52;;;;;;;;;;10291968;28;20204;-79
2023/09/10 06:07:29;;;;;;;0.15;0.15;;;;;;;;;;10327449;28;20267;-77
2023/09/10 06:12:30;;;;;;;0.60;0.60;;;;;;;;;;10329180;28;20679;-76
2023/09/10 06:17:32;;;;;;;0.45;0.45;;;;;;;;;;10329479;28;20703;-76
2023/09/10 06:22:33;;;;;;;0.63;0.63;;;;;;;;;;10340590;28;20564;-78
2023/09/10 06:27:34;;;;;;;0.73;0.63;;;;;;;;;;10339180;28;20840;-77
2023/09/10 06:32:35;;;;;;;0.20;0.20;;;;;;;;;;10328728;28;20227;-77
2023/09/10 06:37:37;;;;;;;2.35;0.63;;;;;;;;;;10316125;28;20696;-78
2023/09/10 06:42:38;;;;;;;0.90;0.90;;;;;;;;;;10320217;28;20246;-78
2023/09/10 06:47:51;;;;;;;1.88;0.70;;;;;;;;;;10323773;28;20228;-78
2023/09/10 06:52:52;;;;;;;0.77;0.77;;;;;;;;;;10332018;28;20213;-80
2023/09/10 06:57:53;;;;;;;0.93;0.38;;;;;;;;;;10324855;28;20217;-78
2023/09/10 07:02:56;;;;;;;1.00;1.00;;;;;;;;;;10337899;28;20274;-78
2023/09/10 07:07:57;;;;;;;0.30;0.30;;;;;;;;;;10311819;28;20913;-79
2023/09/10 07:12:58;;;;;;;1.95;1.23;;;;;;;;;;10330575;28;20212;-77
2023/09/10 07:17:59;;;;;;;2.67;0.50;;;;;;;;;;10304648;28;20220;-78
2023/09/10 07:23:00;;;;;;;0.95;0.90;;;;;;;;;;10318504;28;20223;-78
2023/09/10 07:28:01;;;;;;;0.38;0.38;;;;;;;;;;10292485;28;20504;-78
2023/09/10 07:33:02;;;;;;;0.68;0.68;;;;;;;;;;10292653;28;20216;-78
2023/09/10 07:38:03;;;;;;;1.50;0.25;;;;;;;;;;10310748;28;20220;-78
2023/09/10 07:43:04;;;;;;;1.08;0.35;;;;;;;;;;10306307;28;20712;-77
2023/09/10 07:48:06;;;;;;;0.52;0.52;;;;;;;;;;10309082;28;20406;-79
2023/09/10 07:53:07;;;;;;;0.50;0.45;;;;;;;;;;10312023;28;20828;-78
2023/09/10 07:58:08;;;;;;;0.35;0.35;;;;;;;;;;10296406;28;20227;-79
2023/09/10 08:03:09;;;;;;;0.20;0.10;;;;;;;;;;10318741;28;20295;-79
2023/09/10 08:08:10;;;;;;;0.35;0.35;;;;;;;;;;10293624;28;20224;-80
2023/09/10 08:13:14;;;;;;;0.30;0.30;;;;;;;;;;10295236;28;20209;-80
2023/09/10 08:18:16;;;;;;;3.22;0.95;;;;;;;;;;10311716;28;20227;-78
2023/09/10 08:23:17;;;;;;;0.28;0.28;;;;;;;;;;10296967;28;20208;-79
2023/09/10 08:28:19;;;;;;;0.75;0.55;;;;;;;;;;10303641;28;20833;-79
2023/09/10 08:33:21;;;;;;;0.30;0.30;;;;;;;;;;10313923;28;20204;-79
2023/09/10 08:38:22;;;;;;;1.05;0.30;;;;;;;;;;10298807;28;20213;-79
2023/09/10 08:43:27;;;;;;;1.20;0.70;;;;;;;;;;10288164;28;20208;-78
2023/09/10 08:48:29;;;;;;;0.40;0.40;;;;;;;;;;10296609;28;20231;-80
2023/09/10 08:53:31;;;;;;;0.10;0.10;;;;;;;;;;10322546;28;20620;-80
2023/09/10 08:58:33;;;;;;;0.25;0.25;;;;;;;;;;10313524;28;20224;-76
2023/09/10 09:03:34;;;;;;;0.10;0.10;;;;;;;;;;10295932;28;20718;-78
2023/09/10 09:08:35;;;;;;;0.70;0.32;;;;;;;;;;10296466;28;20232;-78
2023/09/10 09:13:42;;;;;;;0.10;0.10;;;;;;;;;;10306727;28;20242;-80
2023/09/10 09:18:45;;;;;;;0.10;0.10;;;;;;;;;;10284385;28;20511;-79
2023/09/10 09:23:51;;;;;;;0.10;0.10;;;;;;;;;;10290226;28;20208;-80
2023/09/10 09:28:55;;;;;;;0.20;0.20;;;;;;;;;;10320312;28;20440;-80
2023/09/10 09:33:56;;;;;;;0.10;0.10;;;;;;;;;;10290609;28;20208;-83
2023/09/10 09:38:57;;;;;;;0.03;0.03;;;;;;;;;;10307171;28;20222;-78
2023/09/10 09:43:58;;;;;;;0.20;0.20;;;;;;;;;;10301761;28;20204;-81
2023/09/10 09:48:59;;;;;;;0.10;0.10;;;;;;;;;;10318399;28;20208;-83
2023/09/10 09:54:01;;;;;;;0.20;0.20;;;;;;;;;;10308686;28;20445;-79
2023/09/10 09:59:02;;;;;;;0.17;0.17;;;;;;;;;;10333075;28;20900;-79
2023/09/10 10:04:03;;;;;;;0.20;0.20;;;;;;;;;;10330895;28;20215;-79
2023/09/10 10:09:04;;;;;;;0.10;0.10;;;;;;;;;;10302987;28;20220;-80
2023/09/10 10:14:06;;;;;;;0.10;0.10;;;;;;;;;;10325714;28;20833;-82
2023/09/10 10:19:07;;;;;;;0.20;0.20;;;;;;;;;;10333147;28;20748;-80
2023/09/10 10:24:09;;;;;;;0.10;0.10;;;;;;;;;;10315860;28;20235;-87
2023/09/10 10:29:10;;;;;;;0.20;0.20;;;;;;;;;;10313405;28;20557;-83
2023/09/10 10:34:15;;;;;;;0.10;0.10;;;;;;;;;;10298907;28;20243;-82
2023/09/10 10:39:17;;;;;;;0.43;0.43;;;;;;;;;;10319818;28;20220;-81
2023/09/10 10:44:20;;;;;;;0.10;0.10;;;;;;;;;;10319556;28;20235;-80
2023/09/10 10:49:22;;;;;;;0.10;0.10;;;;;;;;;;10299447;28;20753;-80
2023/09/10 10:54:23;;;;;;;0.10;0.10;;;;;;;;;;10312200;28;20240;-80
2023/09/10 10:59:25;;;;;;;0.10;0.10;;;;;;;;;;10339751;28;20255;-79
2023/09/10 11:04:28;;;;;;;0.30;0.30;;;;;;;;;;10296701;28;20219;-82
2023/09/10 11:09:36;;;;;;;0.20;0.20;;;;;;;;;;10284224;28;20926;-81
2023/09/10 11:14:55;;;;;;;0.10;0.10;;;;;;;;;;10293457;28;20221;-84
2023/09/10 11:19:57;;;;;;;0.10;0.10;;;;;;;;;;10287378;28;20549;-79
2023/09/10 11:25:02;;;;;;;4.05;0.28;;;;;;;;;;10265955;28;20658;-82
2023/09/10 11:30:06;;;;;;;0.10;0.10;;;;;;;;;;10277630;28;20678;-82
2023/09/10 11:35:20;;;;;;;0.10;0.10;;;;;;;;;;10287896;28;20221;-79
2023/09/10 11:40:22;;;;;;;0.20;0.20;;;;;;;;;;10279881;28;20216;-82
2023/09/10 11:45:23;;;;;;;0.10;0.10;;;;;;;;;;10281111;28;20220;-83
2023/09/10 11:50:26;;;;;;;0.28;0.28;;;;;;;;;;10250121;28;20276;-82
2023/09/10 11:55:27;;;;;;;0.10;0.10;;;;;;;;;;10277105;28;20220;-80
2023/09/10 12:00:28;;;;;;;0.10;0.10;;;;;;;;;;10263352;28;20232;-84
2023/09/10 12:05:29;;;;;;;0.28;0.28;;;;;;;;;;10272713;28;20220;-86
2023/09/10 12:10:31;;;;;;;0.30;0.30;;;;;;;;;;10298814;28;20996;-80
2023/09/10 12:15:33;;;;;;;0.10;0.10;;;;;;;;;;10324421;28;20207;-80
2023/09/10 12:20:35;;;;;;;0.20;0.20;;;;;;;;;;10321846;28;20232;-79
2023/09/10 12:25:36;;;;;;;0.10;0.10;;;;;;;;;;10319419;28;20224;-83
2023/09/10 12:30:37;;;;;;;0.00;0.00;;;;;;;;;;10298978;28;20212;-83
2023/09/10 12:35:39;;;;;;;0.10;0.10;;;;;;;;;;10306955;28;20302;-81
2023/09/10 12:40:40;;;;;;;0.20;0.20;;;;;;;;;;10308130;28;20266;-80
2023/09/10 12:45:41;;;;;;;0.35;0.35;;;;;;;;;;10308453;28;20220;-81
2023/09/10 12:50:44;;;;;;;0.20;0.20;;;;;;;;;;10315354;28;20207;-81
2023/09/10 12:55:45;;;;;;;0.10;0.10;;;;;;;;;;10318244;28;20207;-80
2023/09/10 13:00:55;;;;;;;0.20;0.20;;;;;;;;;;10299315;28;20307;-81
2023/09/10 13:05:56;;;;;;;0.20;0.20;;;;;;;;;;10298231;28;20254;-82
2023/09/10 13:10:57;;;;;;;0.20;0.20;;;;;;;;;;10320325;28;20283;-79
2023/09/10 13:15:58;;;;;;;0.10;0.10;;;;;;;;;;10277847;28;20223;-83
2023/09/10 13:20:59;;;;;;;0.20;0.20;;;;;;;;;;10312260;28;20228;-81
2023/09/10 13:26:00;;;;;;;0.20;0.20;;;;;;;;;;10333875;28;20212;-81
2023/09/10 13:31:02;;;;;;;0.40;0.40;;;;;;;;;;10322634;28;20212;-81
2023/09/10 13:36:03;;;;;;;0.10;0.10;;;;;;;;;;10285662;28;20216;-81
2023/09/10 13:41:04;;;;;;;0.22;0.22;;;;;;;;;;10306889;28;20693;-80
2023/09/10 13:46:05;;;;;;;0.10;0.10;;;;;;;;;;10304026;28;20594;-82
2023/09/10 13:51:08;;;;;;;0.10;0.10;;;;;;;;;;10311505;28;20215;-80
2023/09/10 13:56:09;;;;;;;0.40;0.40;;;;;;;;;;10297845;28;20236;-80
2023/09/10 14:01:10;;;;;;;0.40;0.40;;;;;;;;;;10318897;28;20220;-83
2023/09/10 14:06:11;;;;;;;0.20;0.20;;;;;;;;;;10328110;28;20239;-82
2023/09/10 14:11:12;;;;;;;0.10;0.10;;;;;;;;;;10315255;28;20212;-80
2023/09/10 14:16:14;;;;;;;0.52;0.30;;;;;;;;;;10324857;28;20665;-81
2023/09/10 14:21:17;;;;;;;0.10;0.10;;;;;;;;;;10299879;28;20235;-80
2023/09/10 14:26:18;;;;;;;0.65;0.45;;;;;;;;;;10306674;28;20220;-81
2023/09/10 14:31:19;;;;;;;0.15;0.15;;;;;;;;;;10324273;28;20215;-81
2023/09/10 14:36:22;;;;;;;0.20;0.20;;;;;;;;;;10323127;28;20588;-80
2023/09/10 14:41:23;;;;;;;0.30;0.30;;;;;;;;;;10304897;28;20223;-80
2023/09/10 14:46:24;;;;;;;0.10;0.10;;;;;;;;;;10313656;28;20570;-80
2023/09/10 14:51:25;;;;;;;0.20;0.20;;;;;;;;;;10326709;28;20423;-80
2023/09/10 14:56:26;;;;;;;0.28;0.28;;;;;;;;;;10333903;28;20263;-81
2023/09/10 15:01:28;;;;;;;0.28;0.28;;;;;;;;;;10324158;28;20227;-80
2023/09/10 15:06:29;;;;;;;0.20;0.20;;;;;;;;;;10325656;28;20219;-81
2023/09/10 15:11:30;;;;;;;8.40;0.30;;;;;;;;;;10313767;28;20213;-79
2023/09/10 15:16:31;;;;;;;0.30;0.30;;;;;;;;;;10296174;28;20247;-80
2023/09/10 15:21:32;;;;;;;0.40;0.40;;;;;;;;;;10329188;28;22568;-84
2023/09/10 15:26:33;;;;;;;0.03;0.03;;;;;;;;;;10302998;28;20228;-81
2023/09/10 15:31:35;;;;;;;0.20;0.20;;;;;;;;;;10295539;28;20217;-81
2023/09/10 15:36:37;;;;;;;0.22;0.22;;;;;;;;;;10320222;28;20224;-82
2023/09/10 15:41:46;;;;;;;0.40;0.40;;;;;;;;;;10326417;28;20232;-80
2023/09/10 15:46:47;;;;;;;0.32;0.13;;;;;;;;;;10325976;28;20224;-82
2023/09/10 15:51:49;;;;;;;0.13;0.13;;;;;;;;;;10317469;28;20803;-82
2023/09/10 15:56:50;;;;;;;0.30;0.30;;;;;;;;;;10305390;28;20271;-82
2023/09/10 16:01:51;;;;;;;0.43;0.43;;;;;;;;;;10326681;28;20227;-83
2023/09/10 16:06:52;;;;;;;0.20;0.20;;;;;;;;;;10305734;28;20227;-83
2023/09/10 16:11:53;;;;;;;0.60;0.60;;;;;;;;;;10300695;28;20212;-83
2023/09/10 16:16:55;;;;;;;0.20;0.20;;;;;;;;;;10316973;28;20219;-80
2023/09/10 16:21:58;;;;;;;0.20;0.20;;;;;;;;;;10275813;28;20235;-79
2023/09/10 16:26:59;;;;;;;0.10;0.10;;;;;;;;;;10303536;28;20246;-80
2023/09/10 16:32:00;;;;;;;0.30;0.30;;;;;;;;;;10291552;28;20212;-79
2023/09/10 16:37:01;;;;;;;0.75;0.68;;;;;;;;;;10311801;28;20228;-78
2023/09/10 16:42:05;;;;;;;1.85;0.43;;;;;;;;;;10294883;28;20226;-79
2023/09/10 16:47:06;;;;;;;0.30;0.30;;;;;;;;;;10296829;28;20295;-79
2023/09/10 16:52:07;;;;;;;0.25;0.25;;;;;;;;;;10292941;28;20212;-79
2023/09/10 16:57:08;;;;;;;0.30;0.30;;;;;;;;;;10313954;28;20223;-77
2023/09/10 17:02:09;;;;;;;0.30;0.30;;;;;;;;;;10274217;28;20212;-80
2023/09/10 17:07:12;;;;;;;0.32;0.32;;;;;;;;;;10296311;28;20908;-78
2023/09/10 17:12:14;;;;;;;0.73;0.60;;;;;;;;;;10285216;28;20358;-78
2023/09/10 17:17:15;;;;;;;0.20;0.20;;;;;;;;;;10286371;28;20300;-78
2023/09/10 17:22:16;;;;;;;0.50;0.50;;;;;;;;;;10296093;28;20228;-79
2023/09/10 17:27:17;;;;;;;0.28;0.28;;;;;;;;;;10313117;28;20216;-79
2023/09/10 17:32:19;;;;;;;0.10;0.10;;;;;;;;;;10307277;28;21290;-81
2023/09/10 17:37:22;;;;;;;0.13;0.13;;;;;;;;;;10299224;28;20572;-78
2023/09/10 17:42:26;;;;;;;0.17;0.10;;;;;;;;;;10321092;28;20209;-79
2023/09/10 17:47:28;;;;;;;0.03;0.03;;;;;;;;;;10294421;28;20216;-80
2023/09/10 17:52:30;;;;;;;0.80;0.30;;;;;;;;;;10294563;28;20221;-77
2023/09/10 17:57:32;;;;;;;0.25;0.25;;;;;;;;;;10291709;28;20217;-79
2023/09/10 18:02:33;;;;;;;0.30;0.30;;;;;;;;;;10295074;28;20250;-81
2023/09/10 18:07:34;;;;;;;0.30;0.30;;;;;;;;;;10306026;28;20910;-81
2023/09/10 18:12:35;;;;;;;0.30;0.30;;;;;;;;;;10303531;28;20274;-82
2023/09/10 18:17:36;;;;;;;0.80;0.80;;;;;;;;;;10305727;28;20233;-83
2023/09/10 18:22:37;;;;;;;0.32;0.32;;;;;;;;;;10307026;28;20812;-81
2023/09/10 18:27:39;;;;;;;1.88;0.90;;;;;;;;;;10327488;28;20216;-79
2023/09/10 18:32:40;;;;;;;0.57;0.57;;;;;;;;;;10315445;28;20212;-81
2023/09/10 18:37:41;;;;;;;0.32;0.32;;;;;;;;;;10308931;28;20225;-80
2023/09/10 18:42:44;;;;;;;0.60;0.60;;;;;;;;;;10326929;28;20220;-81
2023/09/10 18:47:50;;;;;;;1.85;0.75;;;;;;;;;;10327684;28;20279;-80
2023/09/10 18:52:51;;;;;;;0.77;0.77;;;;;;;;;;10308972;28;20693;-82
2023/09/10 18:57:52;;;;;;;0.40;0.40;;;;;;;;;;10332007;28;20224;-80
2023/09/10 19:02:53;;;;;;;0.77;0.77;;;;;;;;;;10329103;28;20213;-81
2023/09/10 19:07:54;;;;;;;4.80;1.30;;;;;;;;;;10323799;28;20303;-81
2023/09/10 19:12:55;;;;;;;2.08;0.52;;;;;;;;;;10293860;28;20214;-83
2023/09/10 19:17:56;;;;;;;0.30;0.30;;;;;;;;;;10321299;28;20230;-80
2023/09/10 19:22:59;;;;;;;1.08;1.00;;;;;;;;;;10282368;28;20793;-81
2023/09/10 19:28:00;;;;;;;1.42;0.73;;;;;;;;;;10302079;28;20705;-85
2023/09/10 19:33:02;;;;;;;1.50;0.38;;;;;;;;;;10320924;28;20744;-83
2023/09/10 19:38:04;;;;;;;1.90;0.98;;;;;;;;;;10290514;28;20228;-82
2023/09/10 19:43:05;;;;;;;1.95;0.90;;;;;;;;;;10324762;28;20266;-81
2023/09/10 19:48:06;;;;;;;2.00;0.93;;;;;;;;;;10315638;28;20220;-79
2023/09/10 19:53:07;;;;;;;5.00;0.68;;;;;;;;;;10324973;28;21748;-80
2023/09/10 19:58:08;;;;;;;1.25;1.05;;;;;;;;;;10340056;28;20713;-80
2023/09/10 20:03:09;;;;;;;1.02;1.02;;;;;;;;;;10315839;28;20589;-80
2023/09/10 20:08:11;;;;;;;2.08;1.17;;;;;;;;;;10325265;28;20236;-79
2023/09/10 20:13:12;;;;;;;1.33;0.80;;;;;;;;;;10320268;28;20223;-79
2023/09/10 20:18:13;;;;;;;0.80;0.80;;;;;;;;;;10321300;28;20220;-78
2023/09/10 20:23:14;;;;;;;0.75;0.75;;;;;;;;;;10332435;28;20268;-78
2023/09/10 20:28:15;;;;;;;1.48;0.95;;;;;;;;;;10289797;28;20220;-79
2023/09/10 20:33:16;;;;;;;0.50;0.50;;;;;;;;;;10306303;28;20590;-81
2023/09/10 20:38:17;;;;;;;1.50;1.50;;;;;;;;;;10296478;28;20211;-82
2023/09/10 20:43:18;;;;;;;3.50;1.25;;;;;;;;;;10324651;28;20212;-81
2023/09/10 20:48:19;;;;;;;1.35;1.35;;;;;;;;;;10301852;28;20216;-82
2023/09/10 20:53:20;;;;;;;1.02;1.02;;;;;;;;;;10332007;28;20904;-78
2023/09/10 20:58:21;;;;;;;0.25;0.25;;;;;;;;;;10296839;28;20319;-82
2023/09/10 21:03:22;;;;;;;2.55;2.17;;;;;;;;;;10327096;28;20263;-81
2023/09/10 21:08:24;;;;;;;1.10;1.10;;;;;;;;;;10326754;28;21161;-81
2023/09/10 21:13:25;;;;;;;1.45;1.35;;;;;;;;;;10327396;28;20208;-79
2023/09/10 21:18:26;;;;;;;1.63;1.58;;;;;;;;;;10283226;28;20224;-80
2023/09/10 21:23:29;;;;;;;2.35;1.58;;;;;;;;;;10315762;28;20208;-79
2023/09/10 21:28:30;;;;;;;0.73;0.73;;;;;;;;;;10300383;28;20212;-79
2023/09/10 21:33:31;;;;;;;1.05;1.05;;;;;;;;;;10304572;28;20729;-78
2023/09/10 21:38:32;;;;;;;0.85;0.77;;;;;;;;;;10325034;28;20212;-81
2023/09/10 21:43:33;;;;;;;2.25;2.15;;;;;;;;;;10317219;28;20216;-82
2023/09/10 21:48:34;;;;;;;1.42;1.30;;;;;;;;;;10295014;28;20230;-77
2023/09/10 21:53:35;;;;;;;1.73;1.35;;;;;;;;;;10308928;28;20212;-79
2023/09/10 21:58:37;;;;;;;1.35;1.35;;;;;;;;;;10327903;28;20216;-81
2023/09/10 22:03:38;;;;;;;2.05;1.75;;;;;;;;;;10308235;28;20217;-77
2023/09/10 22:08:39;;;;;;;2.20;1.48;;;;;;;;;;10311086;28;20224;-81
2023/09/10 22:13:40;;;;;;;0.85;0.82;;;;;;;;;;10329109;28;20212;-79
2023/09/10 22:18:41;;;;;;;1.55;1.23;;;;;;;;;;10316099;28;20305;-79
2023/09/10 22:23:42;;;;;;;2.83;1.75;;;;;;;;;;10307994;28;20220;-79
2023/09/10 22:28:47;;;;;;;1.17;1.08;;;;;;;;;;10331659;28;20794;-77
2023/09/10 22:33:48;;;;;;;1.23;1.23;;;;;;;;;;10327571;28;20240;-80
2023/09/10 22:38:50;;;;;;;1.65;1.42;;;;;;;;;;10331352;28;20308;-80
2023/09/10 22:43:51;;;;;;;5.70;2.28;;;;;;;;;;10301847;28;20235;-78
2023/09/10 22:48:52;;;;;;;2.92;1.17;;;;;;;;;;10311909;28;20396;-78
2023/09/10 22:53:53;;;;;;;1.40;1.30;;;;;;;;;;10297670;28;20221;-79
2023/09/10 22:58:54;;;;;;;1.75;1.65;;;;;;;;;;10307844;28;20637;-81
2023/09/10 23:03:55;;;;;;;1.10;1.10;;;;;;;;;;10289152;28;20299;-78
2023/09/10 23:08:56;;;;;;;1.15;0.85;;;;;;;;;;10319283;28;20231;-79
2023/09/10 23:13:57;;;;;;;8.57;2.63;;;;;;;;;;10295393;28;20219;-80
2023/09/10 23:18:59;;;;;;;6.03;1.90;;;;;;;;;;10324859;28;20227;-80
2023/09/10 23:24:00;;;;;;;1.70;1.70;;;;;;;;;;10302094;28;20833;-78
2023/09/10 23:29:01;;;;;;;1.50;1.50;;;;;;;;;;10313343;28;20283;-78
2023/09/10 23:34:02;;;;;;;0.98;0.98;;;;;;;;;;10299071;28;20219;-78
2023/09/10 23:39:03;;;;;;;1.63;1.50;;;;;;;;;;10305216;28;20751;-79
2023/09/10 23:44:04;;;;;;;1.10;0.95;;;;;;;;;;10319208;28;20850;-80
2023/09/10 23:49:06;;;;;;;4.90;1.38;;;;;;;;;;10320181;28;20243;-80
2023/09/10 23:54:07;;;;;;;1.58;1.48;;;;;;;;;;10311355;28;20236;-78
2023/09/10 23:59:08;;;;;;;1.48;1.25;;;;;;;;;;10318184;28;20220;-79
